Time;durP1;ratioP1;P1;durP2;ratioP2;P2;SDS_P1;SDS_P2;PMS_P1;PMS_P2;Temp;Humidity;BMP_temperature;BMP_pressure;BME280_temperature;BME280_humidity;BME280_pressure;Samples;Min_cycle;Max_cycle;Signal;HPM_P1;HPM_P2
2022/12/22 03:26:21;;;;;;;13.35;8.43;;;20.90;61.40;;;;;;5028775;28;20025;-75
2022/12/22 03:28:46;;;;;;;15.27;9.80;;;20.90;61.40;;;;;;5028275;28;20037;-76
2022/12/22 03:31:12;;;;;;;13.25;9.05;;;20.90;61.30;;;;;;5032156;28;20084;-75
2022/12/22 03:33:38;;;;;;;16.65;9.48;;;20.90;61.50;;;;;;5032512;28;20944;-75
2022/12/22 03:36:05;;;;;;;13.73;9.63;;;20.90;61.50;;;;;;5032432;28;20589;-75
2022/12/22 03:38:31;;;;;;;17.17;9.38;;;20.90;61.40;;;;;;5032182;28;20275;-75
2022/12/22 03:40:57;;;;;;;13.80;8.68;;;20.90;61.50;;;;;;5030884;28;20508;-75
2022/12/22 03:46:29;;;;;;;14.05;8.93;;;20.90;61.40;;;;;;5032076;28;20131;-75
2022/12/22 03:49:08;;;;;;;14.25;9.40;;;20.90;61.30;;;;;;5032000;28;20446;-75
2022/12/22 03:51:41;;;;;;;14.43;8.90;;;20.90;61.50;;;;;;5032069;28;20034;-75
2022/12/22 03:54:08;;;;;;;13.43;8.43;;;20.90;61.40;;;;;;5032223;28;20061;-75
2022/12/22 03:56:34;;;;;;;14.02;8.75;;;20.90;61.40;;;;;;5030726;28;20557;-75
2022/12/22 03:59:00;;;;;;;15.00;8.60;;;20.90;61.50;;;;;;5030487;28;20041;-75
2022/12/22 04:01:26;;;;;;;14.07;8.20;;;20.90;61.50;;;;;;5030427;28;20031;-74
2022/12/22 04:03:52;;;;;;;12.65;8.45;;;20.90;61.50;;;;;;5031919;28;20474;-74
2022/12/22 04:06:18;;;;;;;13.70;8.43;;;20.90;61.50;;;;;;5031771;28;20018;-75
2022/12/22 04:08:44;;;;;;;13.35;8.55;;;20.90;61.30;;;;;;5032081;28;20022;-74
2022/12/22 04:13:56;;;;;;;12.80;8.10;;;20.90;61.40;;;;;;5032111;28;20412;-74
2022/12/22 04:16:22;;;;;;;12.45;7.85;;;20.90;61.50;;;;;;5031452;28;20022;-74
2022/12/22 04:18:48;;;;;;;16.58;8.77;;;20.90;61.40;;;;;;5031518;28;20144;-74
2022/12/22 04:21:14;;;;;;;12.63;7.55;;;20.90;61.60;;;;;;5031480;28;20037;-75
2022/12/22 04:23:40;;;;;;;12.35;8.35;;;20.90;61.60;;;;;;5030078;28;20477;-75
2022/12/22 04:26:06;;;;;;;12.95;8.60;;;20.90;62.20;;;;;;5031329;28;20028;-75
2022/12/22 04:28:32;;;;;;;13.73;8.57;;;20.90;61.40;;;;;;5031232;28;20120;-74
2022/12/22 04:30:58;;;;;;;12.45;7.85;;;20.90;61.60;;;;;;5031351;28;20041;-75
2022/12/22 04:33:24;;;;;;;11.48;7.82;;;20.90;61.60;;;;;;5013612;28;20124;-74
2022/12/22 04:35:50;;;;;;;13.77;8.73;;;20.90;61.60;;;;;;5031011;28;20030;-74
2022/12/22 04:38:15;;;;;;;11.70;7.72;;;20.90;61.60;;;;;;5031266;28;20029;-75
2022/12/22 04:40:41;;;;;;;10.73;7.75;;;20.90;61.50;;;;;;5030978;28;20147;-74
2022/12/22 04:43:07;;;;;;;13.45;8.02;;;20.90;61.40;;;;;;5031249;28;20087;-74
2022/12/22 04:45:33;;;;;;;12.68;8.18;;;20.90;61.90;;;;;;5030043;28;20026;-74
2022/12/22 04:47:59;;;;;;;11.55;7.88;;;20.90;61.60;;;;;;5029942;28;20056;-74
2022/12/22 04:50:25;;;;;;;10.80;7.43;;;20.90;61.50;;;;;;5030998;28;20445;-75
2022/12/22 04:52:50;;;;;;;11.90;7.55;;;20.90;61.50;;;;;;5030556;28;20493;-74
2022/12/22 04:55:16;;;;;;;12.10;7.78;;;20.90;61.90;;;;;;5029631;28;20038;-74
2022/12/22 04:57:42;;;;;;;10.75;7.30;;;20.90;61.60;;;;;;5030932;28;20532;-75
2022/12/22 05:00:09;;;;;;;12.63;7.65;;;20.90;61.80;;;;;;5030904;28;20367;-74
2022/12/22 05:02:34;;;;;;;10.65;7.43;;;20.90;61.80;;;;;;5030348;28;20029;-75
2022/12/22 05:05:00;;;;;;;11.98;7.25;;;20.90;61.80;;;;;;5025912;28;20526;-74
2022/12/22 05:07:26;;;;;;;9.88;6.55;;;20.90;61.90;;;;;;5015998;28;20032;-74
2022/12/22 05:09:52;;;;;;;10.73;7.13;;;20.90;61.60;;;;;;5029662;28;20029;-74
2022/12/22 05:15:02;;;;;;;9.50;6.82;;;20.90;61.80;;;;;;5029714;28;20072;-75
2022/12/22 05:17:28;;;;;;;11.27;6.72;;;20.90;61.70;;;;;;5013003;28;20037;-74
2022/12/22 05:19:54;;;;;;;13.50;7.57;;;20.90;61.60;;;;;;5029190;28;20403;-74
2022/12/22 05:22:20;;;;;;;11.77;7.57;;;20.90;61.60;;;;;;5030834;28;20083;-74
2022/12/22 05:24:46;;;;;;;13.07;6.63;;;20.90;61.80;;;;;;5028263;28;20042;-75
2022/12/22 05:27:11;;;;;;;10.27;6.47;;;20.90;61.70;;;;;;5030595;28;20028;-74
2022/12/22 05:29:37;;;;;;;10.23;7.03;;;20.90;61.70;;;;;;5029794;28;20033;-75
2022/12/22 05:32:03;;;;;;;10.07;6.63;;;20.90;61.70;;;;;;5030584;28;20040;-74
2022/12/22 05:34:29;;;;;;;11.27;7.00;;;20.90;61.80;;;;;;5029105;28;20029;-74
2022/12/22 05:36:55;;;;;;;10.25;6.75;;;20.90;61.80;;;;;;5030484;28;20401;-74
2022/12/22 05:39:20;;;;;;;11.18;6.82;;;20.90;61.90;;;;;;5029786;28;20029;-74
2022/12/22 05:41:46;;;;;;;12.30;6.75;;;20.90;61.90;;;;;;5030580;28;20026;-74
2022/12/22 05:44:12;;;;;;;15.23;6.85;;;20.90;61.90;;;;;;5028869;28;20036;-74
2022/12/22 05:46:38;;;;;;;10.40;6.75;;;20.90;62.50;;;;;;5028387;28;20033;-75
2022/12/22 05:49:03;;;;;;;10.85;6.60;;;20.90;61.80;;;;;;5029775;28;20029;-75
2022/12/22 05:51:29;;;;;;;11.15;7.05;;;20.80;61.90;;;;;;5029800;28;20033;-75
2022/12/22 05:53:55;;;;;;;10.93;6.80;;;20.90;61.90;;;;;;5028423;28;20029;-75
2022/12/22 05:56:21;;;;;;;9.73;6.55;;;20.80;61.90;;;;;;5028948;28;20033;-75
2022/12/22 05:58:46;;;;;;;10.68;6.85;;;20.90;61.90;;;;;;5029733;28;20033;-75
2022/12/22 06:01:12;;;;;;;10.80;6.18;;;20.90;62.00;;;;;;5028568;28;20068;-75
2022/12/22 06:03:38;;;;;;;9.95;6.80;;;20.80;61.90;;;;;;5029840;28;20034;-74
2022/12/22 06:06:04;;;;;;;10.02;6.45;;;20.80;61.90;;;;;;5029011;28;20376;-75
2022/12/22 06:08:30;;;;;;;8.88;5.90;;;20.80;61.90;;;;;;5029563;28;20029;-75
2022/12/22 06:10:57;;;;;;;11.27;6.63;;;20.90;62.00;;;;;;5029667;28;20030;-75
2022/12/22 06:13:24;;;;;;;10.65;6.50;;;20.80;62.00;;;;;;5029855;28;20021;-75
2022/12/22 06:15:50;;;;;;;10.32;6.47;;;20.90;62.00;;;;;;5027728;28;20044;-75
2022/12/22 06:18:16;;;;;;;11.30;6.50;;;20.90;62.10;;;;;;5029197;28;20029;-74
2022/12/22 06:20:41;;;;;;;10.80;6.30;;;20.90;62.00;;;;;;5029603;28;20063;-74
2022/12/22 06:23:07;;;;;;;9.18;6.10;;;20.90;62.00;;;;;;5029638;28;20548;-75
2022/12/22 06:25:33;;;;;;;9.55;5.82;;;20.90;61.90;;;;;;5028788;28;20025;-75
2022/12/22 06:27:59;;;;;;;8.30;5.97;;;20.80;62.00;;;;;;5029456;28;20037;-75
2022/12/22 06:30:25;;;;;;;10.77;6.30;;;20.80;61.90;;;;;;5029410;28;20051;-75
2022/12/22 06:32:51;;;;;;;9.80;6.13;;;20.80;61.90;;;;;;5029408;28;20025;-82
2022/12/22 06:35:16;;;;;;;9.95;6.32;;;20.90;62.00;;;;;;5029351;28;20117;-82
2022/12/22 06:37:42;;;;;;;12.73;7.32;;;20.70;59.30;;;;;;5027880;28;20036;-75
2022/12/22 06:40:09;;;;;;;24.15;6.20;;;20.50;56.90;;;;;;5027778;28;20034;-75
2022/12/22 06:45:19;;;;;;;9.60;5.15;;;20.50;56.60;;;;;;5029010;28;20026;-75
2022/12/22 06:47:44;;;;;;;11.60;5.43;;;20.60;56.90;;;;;;5028928;28;20551;-75
2022/12/22 06:50:10;;;;;;;7.93;5.18;;;20.60;57.50;;;;;;5027835;28;20030;-75
2022/12/22 06:52:36;;;;;;;10.40;5.18;;;20.60;58.20;;;;;;5011904;28;20048;-75
2022/12/22 06:55:02;;;;;;;10.50;4.93;;;20.70;58.10;;;;;;5029071;28;20083;-75
2022/12/22 06:57:28;;;;;;;9.48;5.28;;;20.70;58.50;;;;;;5026232;28;20033;-75
2022/12/22 06:59:54;;;;;;;10.05;4.65;;;20.70;59.00;;;;;;5006190;28;20500;-76
2022/12/22 07:02:20;;;;;;;8.25;4.90;;;20.70;58.50;;;;;;5026854;28;20040;-77
2022/12/22 07:04:45;;;;;;;6.95;4.78;;;20.70;58.60;;;;;;5030263;28;20025;-76
2022/12/22 07:07:11;;;;;;;8.65;4.50;;;20.70;58.50;;;;;;5032403;28;20032;-75
2022/12/22 07:09:37;;;;;;;14.57;4.47;;;20.70;58.80;;;;;;5031556;28;20033;-76
2022/12/22 07:12:03;;;;;;;10.38;4.70;;;20.80;58.80;;;;;;5015401;28;20120;-76
2022/12/22 07:14:28;;;;;;;7.10;4.38;;;20.70;58.80;;;;;;5032209;28;20095;-76
2022/12/22 07:16:54;;;;;;;7.45;4.65;;;20.70;58.80;;;;;;5032413;28;20456;-76
2022/12/22 07:19:20;;;;;;;8.15;4.22;;;20.80;58.80;;;;;;5031519;28;20489;-76
2022/12/22 07:21:47;;;;;;;8.82;4.05;;;20.80;59.00;;;;;;5032732;28;20608;-76
2022/12/22 07:24:13;;;;;;;6.95;4.25;;;20.80;58.80;;;;;;5032903;28;20036;-76
2022/12/22 07:26:39;;;;;;;7.88;4.00;;;20.80;58.90;;;;;;5030952;28;20515;-75
2022/12/22 07:29:05;;;;;;;6.95;4.22;;;20.80;58.80;;;;;;5030626;28;20115;-76
2022/12/22 07:31:30;;;;;;;9.57;4.63;;;20.80;58.80;;;;;;5031210;28;20108;-76
2022/12/22 07:33:56;;;;;;;5.93;4.15;;;20.80;58.80;;;;;;5015340;28;20113;-74
2022/12/22 07:36:22;;;;;;;6.80;4.22;;;20.80;59.20;;;;;;5030772;28;20036;-75
2022/12/22 07:38:50;;;;;;;6.53;3.83;;;20.80;58.90;;;;;;5031978;28;20049;-75
2022/12/22 07:44:04;;;;;;;10.15;4.32;;;20.80;59.10;;;;;;5031037;28;20030;-75
2022/12/22 07:46:32;;;;;;;9.10;4.38;;;20.90;59.30;;;;;;5032101;28;20022;-75
2022/12/22 07:51:43;;;;;;;6.65;3.95;;;20.90;59.10;;;;;;5032390;28;20044;-76
2022/12/22 07:54:11;;;;;;;8.02;4.25;;;20.90;59.00;;;;;;5030617;28;20034;-75
2022/12/22 07:56:37;;;;;;;7.10;4.20;;;20.90;59.00;;;;;;5030873;28;20404;-75
2022/12/22 07:59:03;;;;;;;7.95;3.92;;;20.80;59.00;;;;;;5031377;28;20108;-76
2022/12/22 08:01:29;;;;;;;6.88;4.15;;;20.90;59.10;;;;;;5032337;28;20113;-76
2022/12/22 08:03:55;;;;;;;7.65;4.35;;;20.90;59.10;;;;;;5032066;28;20033;-77
2022/12/22 08:06:21;;;;;;;7.28;4.32;;;20.90;59.10;;;;;;5032012;28;20021;-76
2022/12/22 08:08:47;;;;;;;6.47;4.25;;;20.90;59.20;;;;;;5029660;28;20029;-75
2022/12/22 08:11:13;;;;;;;7.35;3.97;;;20.90;59.10;;;;;;5032486;28;20099;-76
2022/12/22 08:13:38;;;;;;;5.97;3.75;;;20.90;59.10;;;;;;5032018;28;20033;-76
2022/12/22 08:16:06;;;;;;;6.32;4.13;;;20.90;59.10;;;;;;5031224;28;20089;-76
2022/12/22 08:18:33;;;;;;;7.38;4.43;;;20.90;59.20;;;;;;5030903;28;20120;-77
2022/12/22 08:20:59;;;;;;;8.35;4.50;;;20.90;59.20;;;;;;5031333;28;20030;-76
2022/12/22 08:23:25;;;;;;;7.65;4.30;;;20.90;59.10;;;;;;5030565;28;20128;-76
2022/12/22 08:25:58;;;;;;;6.20;3.83;;;20.90;59.70;;;;;;5030176;28;20032;-75
2022/12/22 08:28:24;;;;;;;8.40;3.97;;;20.90;59.20;;;;;;5030205;28;20041;-75
2022/12/22 08:30:50;;;;;;;9.10;4.57;;;20.90;59.20;;;;;;5030984;28;20389;-75
2022/12/22 08:33:15;;;;;;;6.85;4.18;;;20.90;59.20;;;;;;5031643;28;20095;-75
2022/12/22 08:35:42;;;;;;;8.18;4.40;;;20.90;59.70;;;;;;5029697;28;20026;-76
2022/12/22 08:38:10;;;;;;;8.23;4.53;;;20.90;59.10;;;;;;5013611;28;20056;-75
2022/12/22 08:40:36;;;;;;;7.75;3.75;;;20.90;59.10;;;;;;5029674;28;20025;-75
2022/12/22 08:43:06;;;;;;;9.82;4.63;;;21.00;59.20;;;;;;5031454;28;20021;-76
2022/12/22 08:45:32;;;;;;;7.72;4.65;;;21.00;59.20;;;;;;5031156;28;20029;-76
2022/12/22 08:47:57;;;;;;;9.48;4.28;;;21.00;59.10;;;;;;5013426;28;20394;-75
2022/12/22 08:50:23;;;;;;;7.38;4.15;;;20.90;59.10;;;;;;5030523;28;20056;-76
2022/12/22 08:52:49;;;;;;;8.07;4.50;;;21.00;59.10;;;;;;5031015;28;20033;-75
2022/12/22 08:55:15;;;;;;;7.85;4.63;;;20.90;59.10;;;;;;5030731;28;20065;-75
2022/12/22 08:57:41;;;;;;;8.68;4.95;;;21.00;59.10;;;;;;5030727;28;20025;-75
2022/12/22 09:00:09;;;;;;;8.45;4.70;;;21.00;59.20;;;;;;5029442;28;20520;-76
2022/12/22 09:02:35;;;;;;;10.00;5.10;;;21.00;59.20;;;;;;5029382;28;20392;-75
2022/12/22 09:05:01;;;;;;;7.80;4.68;;;21.00;59.20;;;;;;5029552;28;20156;-76
2022/12/22 09:07:27;;;;;;;9.25;4.93;;;21.00;59.20;;;;;;5030859;28;20496;-75
2022/12/22 09:09:53;;;;;;;9.05;4.90;;;21.00;59.20;;;;;;5030446;28;20029;-76
2022/12/22 09:12:19;;;;;;;8.88;4.88;;;21.00;59.20;;;;;;5030534;28;20099;-75
2022/12/22 09:14:45;;;;;;;8.38;4.60;;;21.00;59.20;;;;;;5030469;28;20072;-74
2022/12/22 09:17:10;;;;;;;7.45;4.32;;;21.00;59.20;;;;;;5030899;28;20030;-74
2022/12/22 09:19:36;;;;;;;9.70;4.85;;;21.00;59.20;;;;;;5012597;28;20171;-75
2022/12/22 09:22:02;;;;;;;8.70;4.30;;;21.00;59.20;;;;;;5012594;28;20033;-74
2022/12/22 09:24:28;;;;;;;8.10;4.70;;;21.00;59.20;;;;;;5030204;28;20025;-75
2022/12/22 09:26:54;;;;;;;8.15;4.90;;;21.00;59.20;;;;;;5028740;28;20032;-75
2022/12/22 09:29:19;;;;;;;10.18;4.78;;;21.00;59.30;;;;;;5028760;28;20576;-75
2022/12/22 09:31:45;;;;;;;8.02;4.45;;;21.00;59.20;;;;;;5030152;28;20091;-75
2022/12/22 09:34:11;;;;;;;8.25;4.50;;;21.00;59.20;;;;;;5030351;28;20029;-75
2022/12/22 09:36:39;;;;;;;9.25;4.90;;;21.00;59.20;;;;;;5029772;28;20029;-74
2022/12/22 09:39:07;;;;;;;8.95;4.50;;;21.00;59.20;;;;;;5030286;28;20037;-74
2022/12/22 09:41:49;;;;;;;8.63;4.70;;;21.00;59.20;;;;;;5029883;28;20028;-75
2022/12/22 09:44:30;;;;;;;9.63;4.60;;;21.00;59.20;;;;;;5030479;28;20037;-76
2022/12/22 09:47:11;;;;;;;8.13;4.20;;;21.00;59.20;;;;;;5028940;28;20389;-75
2022/12/22 09:49:37;;;;;;;10.85;4.38;;;21.00;59.20;;;;;;5029801;28;20033;-75
2022/12/22 09:52:03;;;;;;;10.30;4.80;;;21.00;59.10;;;;;;5029632;28;20037;-75
2022/12/22 09:54:30;;;;;;;7.82;4.72;;;21.00;59.10;;;;;;5029730;28;20029;-75
2022/12/22 09:56:56;;;;;;;6.35;3.88;;;21.00;59.70;;;;;;5028904;28;20496;-75
2022/12/22 09:59:26;;;;;;;8.18;4.40;;;21.00;59.10;;;;;;5011954;28;20037;-75
2022/12/22 10:02:20;;;;;;;7.97;4.50;;;21.00;59.10;;;;;;5030131;28;20035;-75
2022/12/22 10:04:46;;;;;;;7.13;4.55;;;21.00;59.10;;;;;;5029516;28;20112;-75
2022/12/22 10:07:23;;;;;;;7.32;4.45;;;21.00;59.10;;;;;;5028350;28;20037;-75
2022/12/22 10:09:49;;;;;;;6.35;4.00;;;21.00;59.20;;;;;;5029451;28;20144;-75
2022/12/22 10:12:18;;;;;;;6.40;4.25;;;21.00;59.20;;;;;;5028928;28;20075;-75
2022/12/22 10:14:47;;;;;;;6.80;4.07;;;21.00;59.20;;;;;;5028790;28;20117;-75
2022/12/22 10:17:31;;;;;;;8.32;4.20;;;21.00;59.20;;;;;;5028506;28;20025;-76
2022/12/22 10:20:26;;;;;;;10.27;4.35;;;21.00;59.20;;;;;;5028037;28;20124;-76
2022/12/22 10:22:57;;;;;;;7.55;4.28;;;21.00;59.20;;;;;;5011679;28;20042;-74
2022/12/22 10:25:50;;;;;;;6.88;4.05;;;21.00;59.30;;;;;;5029153;28;20022;-75
2022/12/22 10:28:21;;;;;;;7.38;3.90;;;21.00;59.20;;;;;;5026750;28;20071;-75
2022/12/22 10:30:47;;;;;;;7.30;4.03;;;21.00;59.30;;;;;;5029248;28;20029;-75
2022/12/22 10:33:16;;;;;;;6.50;4.13;;;21.00;59.30;;;;;;5028015;28;20025;-77
2022/12/22 10:35:51;;;;;;;7.20;4.20;;;21.00;59.30;;;;;;5028912;28;20484;-75
2022/12/22 10:38:29;;;;;;;6.78;3.45;;;21.00;59.30;;;;;;5028887;28;20028;-76
2022/12/22 10:41:07;;;;;;;7.90;4.32;;;21.00;59.30;;;;;;5029026;28;20080;-76
2022/12/22 10:43:39;;;;;;;7.43;4.15;;;20.90;59.20;;;;;;5027880;28;20022;-75
2022/12/22 10:46:05;;;;;;;6.38;3.97;;;20.90;59.20;;;;;;5011324;28;20037;-75
2022/12/22 10:48:36;;;;;;;7.13;4.20;;;20.90;59.20;;;;;;5029107;28;20487;-75
2022/12/22 10:51:08;;;;;;;7.57;4.03;;;20.90;59.30;;;;;;5029296;28;20083;-75
2022/12/22 10:53:37;;;;;;;6.35;3.90;;;20.90;59.30;;;;;;5029312;28;20068;-75
2022/12/22 10:56:07;;;;;;;7.38;4.25;;;21.00;59.30;;;;;;5028642;28;20489;-75
2022/12/22 10:58:54;;;;;;;6.28;4.10;;;21.00;59.30;;;;;;5027494;28;20134;-75
2022/12/22 11:01:30;;;;;;;6.97;4.07;;;21.00;59.20;;;;;;5029192;28;20603;-75
2022/12/22 11:03:57;;;;;;;5.88;4.18;;;21.00;59.20;;;;;;5027931;28;20394;-76
2022/12/22 11:06:23;;;;;;;7.38;3.90;;;21.00;59.20;;;;;;5027286;28;20033;-76
2022/12/22 11:08:49;;;;;;;8.27;4.38;;;21.00;59.20;;;;;;5027367;28;20103;-76
2022/12/22 11:11:21;;;;;;;6.90;3.83;;;21.00;59.20;;;;;;5029243;28;20398;-80
2022/12/22 11:13:47;;;;;;;9.85;5.28;;;21.00;60.10;;;;;;5029388;28;20037;-81
2022/12/22 11:16:32;;;;;;;12.38;5.35;;;20.90;58.40;;;;;;5028723;28;20435;-81
2022/12/22 11:19:23;;;;;;;10.35;4.63;;;20.60;56.70;;;;;;5029046;28;20068;-80
2022/12/22 11:22:03;;;;;;;16.67;5.15;;;20.50;57.20;;;;;;5026159;28;20033;-81
2022/12/22 11:24:44;;;;;;;12.85;4.55;;;20.40;56.30;;;;;;4994480;28;20033;-82
2022/12/22 11:27:32;;;;;;;10.23;4.85;;;20.30;55.90;;;;;;5029137;28;20029;-79
2022/12/22 11:30:04;;;;;;;10.57;4.70;;;20.40;56.60;;;;;;5028873;28;20117;-78
2022/12/22 11:32:45;;;;;;;14.77;5.32;;;20.50;57.10;;;;;;5029349;28;20045;-77
2022/12/22 11:35:56;;;;;;;12.20;4.90;;;20.60;57.10;;;;;;5026780;28;20413;-75
2022/12/22 11:38:57;;;;;;;9.00;4.15;;;20.60;56.70;;;;;;5026827;28;20073;-75
2022/12/22 11:41:51;;;;;;;7.28;3.92;;;20.70;56.50;;;;;;5022684;28;20052;-79
2022/12/22 11:44:38;;;;;;;6.85;3.63;;;20.70;56.60;;;;;;5028137;28;20025;-76
2022/12/22 11:47:25;;;;;;;9.48;3.95;;;20.80;57.10;;;;;;5028156;28;20060;-75
2022/12/22 11:50:26;;;;;;;7.38;3.80;;;20.80;57.40;;;;;;5023626;28;20504;-75
2022/12/22 11:53:03;;;;;;;11.05;4.30;;;20.90;57.90;;;;;;5032267;28;20036;-76
2022/12/22 11:55:39;;;;;;;10.57;4.20;;;20.90;58.20;;;;;;5028454;28;20087;-76
2022/12/22 11:58:28;;;;;;;8.25;4.13;;;20.90;58.50;;;;;;5027424;28;20025;-76
2022/12/22 12:01:09;;;;;;;9.50;4.07;;;20.90;58.60;;;;;;5030720;28;20030;-75
2022/12/22 12:03:47;;;;;;;11.80;4.07;;;20.90;58.60;;;;;;5029227;28;20409;-78
2022/12/22 12:06:29;;;;;;;6.03;3.83;;;20.90;58.90;;;;;;5029725;28;20044;-80
2022/12/22 12:09:16;;;;;;;21.02;12.55;;;20.90;58.40;;;;;;5030184;28;20478;-76
2022/12/22 12:11:52;;;;;;;30.08;21.17;;;20.70;56.70;;;;;;5028861;28;20040;-78
2022/12/22 12:14:33;;;;;;;34.17;21.85;;;20.50;54.90;;;;;;5029385;28;20033;-77
2022/12/22 12:17:04;;;;;;;27.58;17.58;;;20.50;55.90;;;;;;5011662;28;20442;-78
2022/12/22 12:19:44;;;;;;;27.08;17.75;;;20.50;57.10;;;;;;5031575;28;20114;-78
2022/12/22 12:22:23;;;;;;;26.23;16.98;;;20.60;57.20;;;;;;5029573;28;20032;-78
2022/12/22 12:25:00;;;;;;;26.42;16.77;;;20.70;57.20;;;;;;5030346;28;20025;-79
2022/12/22 12:28:06;;;;;;;23.33;16.55;;;20.70;57.20;;;;;;5029476;28;20083;-79
2022/12/22 12:30:53;;;;;;;23.60;15.40;;;20.70;57.30;;;;;;5015165;28;20034;-78
2022/12/22 12:33:41;;;;;;;23.13;15.80;;;20.80;58.00;;;;;;5008449;28;20033;-77
2022/12/22 12:36:37;;;;;;;24.85;15.55;;;20.80;58.90;;;;;;5028639;28;20057;-78
2022/12/22 12:39:11;;;;;;;22.88;14.07;;;20.80;58.70;;;;;;5027771;28;20385;-79
2022/12/22 12:42:05;;;;;;;21.85;14.07;;;20.80;59.00;;;;;;5028672;28;20029;-79
2022/12/22 12:44:34;;;;;;;21.95;13.85;;;20.80;58.70;;;;;;5030740;28;20068;-79
2022/12/22 12:47:06;;;;;;;21.37;13.53;;;20.80;58.60;;;;;;5030934;28;20028;-79
2022/12/22 12:49:35;;;;;;;23.75;14.43;;;20.80;59.20;;;;;;5029532;28;20373;-79
2022/12/22 12:52:01;;;;;;;20.88;14.05;;;20.80;59.30;;;;;;5030772;28;20116;-78
2022/12/22 12:54:33;;;;;;;26.05;13.52;;;20.90;60.20;;;;;;5029132;28;20025;-76
2022/12/22 12:57:09;;;;;;;32.40;14.10;;;20.80;58.90;;;;;;5028566;28;20033;-76
2022/12/22 12:59:42;;;;;;;27.98;12.35;;;20.80;59.00;;;;;;5027540;28;20080;-75
2022/12/22 13:02:26;;;;;;;23.55;14.05;;;20.80;59.50;;;;;;5028821;28;20581;-75
2022/12/22 13:05:27;;;;;;;30.27;12.75;;;20.90;59.80;;;;;;5030146;28;20105;-75
2022/12/22 13:08:06;;;;;;;25.05;13.77;;;20.90;60.10;;;;;;5021908;28;20120;-76
2022/12/22 13:10:39;;;;;;;25.25;13.07;;;20.90;59.80;;;;;;5030594;28;20116;-74
2022/12/22 13:13:09;;;;;;;32.13;15.02;;;20.90;60.50;;;;;;5031253;28;20067;-74
2022/12/22 13:15:37;;;;;;;31.95;13.43;;;20.90;61.30;;;;;;5029200;28;20041;-74
2022/12/22 13:18:28;;;;;;;30.73;14.85;;;21.00;61.40;;;;;;5030634;28;20057;-74
2022/12/22 13:21:08;;;;;;;32.50;13.90;;;21.00;62.60;;;;;;5028189;28;20350;-74
2022/12/22 13:23:37;;;;;;;33.75;13.18;;;21.10;62.30;;;;;;5030748;28;20057;-75
2022/12/22 13:26:09;;;;;;;28.63;13.77;;;21.10;62.20;;;;;;5030249;28;20060;-76
2022/12/22 13:28:38;;;;;;;34.13;16.83;;;21.10;63.10;;;;;;5029180;28;20033;-76
2022/12/22 13:31:15;;;;;;;31.98;19.77;;;20.90;60.40;;;;;;5026052;28;20041;-74
2022/12/22 13:33:43;;;;;;;24.73;14.73;;;20.80;61.00;;;;;;5026676;28;20033;-75
2022/12/22 13:36:18;;;;;;;27.45;15.40;;;20.80;60.30;;;;;;5028276;28;20029;-74
2022/12/22 13:38:45;;;;;;;28.45;14.95;;;20.80;59.70;;;;;;5027089;28;20033;-74
2022/12/22 13:41:20;;;;;;;25.42;15.80;;;20.80;59.30;;;;;;5027889;28;20112;-74
2022/12/22 13:43:56;;;;;;;22.88;13.95;;;20.80;59.10;;;;;;5028101;28;20032;-74
2022/12/22 13:46:23;;;;;;;24.83;13.65;;;20.90;59.20;;;;;;5026006;28;20456;-75
2022/12/22 13:48:50;;;;;;;29.75;15.45;;;20.90;59.40;;;;;;5025560;28;20025;-73
2022/12/22 13:51:21;;;;;;;25.40;14.90;;;20.90;59.60;;;;;;5024771;28;20316;-74
2022/12/22 13:53:54;;;;;;;28.30;15.07;;;21.00;60.10;;;;;;5027770;28;20064;-73
2022/12/22 13:56:25;;;;;;;32.78;15.32;;;21.00;60.50;;;;;;5025623;28;20037;-74
2022/12/22 13:58:58;;;;;;;30.00;15.27;;;21.00;61.00;;;;;;5028147;28;20516;-74
2022/12/22 14:01:25;;;;;;;28.60;13.98;;;21.00;60.90;;;;;;5029896;28;20025;-73
2022/12/22 14:03:52;;;;;;;30.08;14.32;;;21.10;60.90;;;;;;5028791;28;20040;-73
2022/12/22 14:06:36;;;;;;;27.20;14.15;;;21.10;60.80;;;;;;5030324;28;20021;-74
2022/12/22 14:09:22;;;;;;;26.45;14.07;;;21.10;60.90;;;;;;5028022;28;20474;-74
2022/12/22 14:11:56;;;;;;;27.05;13.57;;;21.10;60.80;;;;;;5028597;28;20033;-74
2022/12/22 14:14:35;;;;;;;28.40;14.00;;;21.10;60.90;;;;;;5028393;28;20428;-74
2022/12/22 14:17:01;;;;;;;26.15;13.40;;;21.10;60.90;;;;;;5030522;28;20489;-74
2022/12/22 14:19:32;;;;;;;25.13;13.05;;;21.10;60.90;;;;;;5013816;28;20109;-75
2022/12/22 14:22:12;;;;;;;27.42;14.05;;;21.00;60.90;;;;;;5014003;28;20502;-75
2022/12/22 14:24:54;;;;;;;27.15;13.40;;;21.10;61.00;;;;;;5031746;28;20100;-75
2022/12/22 14:27:31;;;;;;;28.85;14.13;;;21.00;61.10;;;;;;5031602;28;20508;-74
2022/12/22 14:30:00;;;;;;;29.83;14.15;;;21.10;61.30;;;;;;5031455;28;20127;-74
2022/12/22 14:32:41;;;;;;;29.27;13.95;;;21.10;61.40;;;;;;5031580;28;20033;-74
2022/12/22 14:35:36;;;;;;;25.02;13.65;;;21.10;61.50;;;;;;5031659;28;20038;-74
2022/12/22 14:38:14;;;;;;;34.13;13.60;;;21.10;61.60;;;;;;5019099;28;20045;-74
2022/12/22 14:40:41;;;;;;;22.33;12.75;;;21.10;61.60;;;;;;5030442;28;20029;-74
2022/12/22 14:43:16;;;;;;;34.65;13.10;;;21.10;61.80;;;;;;5030956;28;20033;-74
2022/12/22 14:45:48;;;;;;;38.10;13.98;;;21.10;62.10;;;;;;5031522;28;20452;-74
2022/12/22 14:48:21;;;;;;;40.50;14.18;;;21.20;62.00;;;;;;5031067;28;20469;-74
2022/12/22 14:50:51;;;;;;;40.47;13.75;;;21.20;62.50;;;;;;5031323;28;20029;-74
2022/12/22 14:53:45;;;;;;;59.17;14.88;;;21.20;62.00;;;;;;5031430;28;20052;-74
2022/12/22 14:56:13;;;;;;;53.60;15.45;;;21.20;61.90;;;;;;5029400;28;20152;-75
2022/12/22 14:58:40;;;;;;;51.72;14.80;;;21.20;62.20;;;;;;5029626;28;20021;-74
2022/12/22 15:01:32;;;;;;;40.95;15.18;;;21.20;62.10;;;;;;5031096;28;20029;-74
2022/12/22 15:04:16;;;;;;;49.95;14.75;;;21.20;62.10;;;;;;5028283;28;20049;-74
2022/12/22 15:06:46;;;;;;;44.00;14.77;;;21.20;62.10;;;;;;5031364;28;20026;-74
2022/12/22 15:09:12;;;;;;;41.55;14.52;;;21.20;62.40;;;;;;5030758;28;20036;-74
2022/12/22 15:11:46;;;;;;;43.35;13.75;;;21.20;62.20;;;;;;5029943;28;20404;-74
2022/12/22 15:14:16;;;;;;;32.95;13.25;;;21.20;62.10;;;;;;5031009;28;20528;-74
2022/12/22 15:16:42;;;;;;;39.65;13.35;;;21.20;62.30;;;;;;5031184;28;20030;-74
2022/12/22 15:19:13;;;;;;;34.63;14.02;;;21.20;62.20;;;;;;5013012;28;20033;-74
2022/12/22 15:21:39;;;;;;;35.65;13.50;;;21.20;62.20;;;;;;5029967;28;20033;-74
2022/12/22 15:24:14;;;;;;;61.33;14.70;;;21.20;62.90;;;;;;5029757;28;20435;-74
2022/12/22 15:26:40;;;;;;;38.20;13.27;;;21.20;62.80;;;;;;5033859;28;20109;-74
2022/12/22 15:29:07;;;;;;;33.85;12.93;;;21.20;62.00;;;;;;5033081;28;20112;-75
2022/12/22 15:31:33;;;;;;;32.63;13.88;;;21.10;62.10;;;;;;5034735;28;20424;-74
2022/12/22 15:34:01;;;;;;;31.13;13.45;;;21.10;62.00;;;;;;5034641;28;20099;-75
2022/12/22 15:36:27;;;;;;;37.03;13.82;;;21.10;62.00;;;;;;5034597;28;20139;-74
2022/12/22 15:38:53;;;;;;;30.95;13.23;;;21.10;62.10;;;;;;5016004;28;20187;-74
2022/12/22 15:41:19;;;;;;;27.20;12.32;;;21.00;62.10;;;;;;5033568;28;20156;-75
2022/12/22 15:43:44;;;;;;;30.65;12.70;;;21.10;62.10;;;;;;5032852;28;20392;-75
2022/12/22 15:46:15;;;;;;;30.92;12.35;;;21.10;62.10;;;;;;5033332;28;20536;-75
2022/12/22 15:48:42;;;;;;;28.55;12.85;;;21.10;62.10;;;;;;5033311;28;20033;-74
2022/12/22 15:51:24;;;;;;;26.75;11.98;;;21.10;62.10;;;;;;5033451;28;20400;-74
2022/12/22 15:53:50;;;;;;;28.55;12.13;;;21.00;62.00;;;;;;5033779;28;20033;-74
2022/12/22 15:56:19;;;;;;;32.95;12.63;;;21.10;62.10;;;;;;5032922;28;20026;-74
2022/12/22 15:58:45;;;;;;;25.70;12.05;;;21.00;61.90;;;;;;5034018;28;20135;-74
2022/12/22 16:01:12;;;;;;;27.88;12.43;;;21.00;62.00;;;;;;5032985;28;20544;-75
2022/12/22 16:03:38;;;;;;;26.83;12.48;;;21.00;62.00;;;;;;5034325;28;20033;-74
2022/12/22 16:06:05;;;;;;;26.90;11.50;;;21.00;62.00;;;;;;5034216;28;20025;-75
2022/12/22 16:08:36;;;;;;;25.20;11.73;;;21.00;62.10;;;;;;5032150;28;20091;-75
2022/12/22 16:11:04;;;;;;;23.40;11.15;;;21.00;62.10;;;;;;5034060;28;20032;-74
2022/12/22 16:13:30;;;;;;;30.92;11.80;;;21.00;62.00;;;;;;5033996;28;20026;-75
2022/12/22 16:15:58;;;;;;;23.98;11.75;;;21.00;62.00;;;;;;5033855;28;20021;-75
2022/12/22 16:18:24;;;;;;;22.85;11.38;;;21.00;62.10;;;;;;5033544;28;20029;-75
2022/12/22 16:20:50;;;;;;;23.00;10.93;;;21.00;62.00;;;;;;5033713;28;20075;-75
2022/12/22 16:23:21;;;;;;;24.33;11.10;;;20.90;62.00;;;;;;5032689;28;20065;-75
2022/12/22 16:25:48;;;;;;;26.23;11.65;;;20.90;62.00;;;;;;5033762;28;20032;-75
2022/12/22 16:28:18;;;;;;;23.23;10.75;;;21.00;62.00;;;;;;5033399;28;20409;-75
2022/12/22 16:30:44;;;;;;;25.08;11.10;;;21.00;62.00;;;;;;5033495;28;20113;-75
2022/12/22 16:33:11;;;;;;;24.98;11.60;;;20.90;61.90;;;;;;5033818;28;20498;-75
2022/12/22 16:35:38;;;;;;;24.65;10.52;;;20.90;61.90;;;;;;5033721;28;20426;-75
2022/12/22 16:38:04;;;;;;;24.30;10.15;;;20.90;61.90;;;;;;5033059;28;20474;-74